»·PEaware :: N292MC KPHX-P20

N292MC :: KPHX-P20

FLIGHT INFORMATION

Flight Status: Arrived
Operator: Privately registered:
United States
More flights under this callsign
Pilot: Maurice C. (12314)
Aircraft: Unknown
(KODI)
More flights by this aircraft type
Origin: KPHX Phoenix Sky Harbor Intl
United States
Destination: P20 Avi Suquilla
United States
More flights between these airports :: More routes between these airports
Route: BXK
File this flight plan on PilotEdge
Remarks: ALPHABET CHALLENGE
Altitude:
(Current/Filed)
8,500ft
Speed:
(Current/Filed)
180kts
Departed: 12-Oct-20 09:00 AM
Arrived: 12-Oct-20 09:48 AM
Distance/Time
Traveled:
121nm/0:47
Distance/Time
To Go:
Arrived

Flight Plot

Page will automatically refresh every two minutes.

Flight plan parsing failed; only flown route is shown


Map Options




Map Legend


Flown Route
Filed Route
Departure Airport
Arrival Airport
Navaid (VOR, NDB)
Fix

Horizontal Profiles

Position Reports

Time Latitude Longitude Heading Altitude Ground
Speed
12-Oct-20 08:42 33.425569 -112.022346 89 1140ft 0kts
12-Oct-20 08:43 33.425569 -112.022346 89 1140ft 0kts
12-Oct-20 08:44 33.425569 -112.022346 89 1140ft 0kts
12-Oct-20 08:45 33.425569 -112.022346 89 1140ft 0kts
12-Oct-20 08:46 33.425569 -112.022346 89 1140ft 0kts
12-Oct-20 08:47 33.425569 -112.022346 89 1140ft 0kts
12-Oct-20 08:48 33.425569 -112.022346 89 1140ft 0kts
12-Oct-20 08:49 33.425569 -112.022346 89 1140ft 0kts
12-Oct-20 08:50 33.425569 -112.022346 89 1140ft 0kts
12-Oct-20 08:51 33.425569 -112.022346 89 1140ft 0kts
12-Oct-20 08:52 33.425569 -112.022346 89 1140ft 0kts
12-Oct-20 08:53 33.425569 -112.022343 90 1140ft 0kts
12-Oct-20 08:54 33.425568 -112.022275 90 1140ft 3kts
12-Oct-20 08:55 33.427013 -112.021112 358 1140ft 7kts
12-Oct-20 08:56 33.427753 -112.025043 271 1140ft 18kts
12-Oct-20 08:57 33.427855 -112.026827 353 1140ft 0kts
12-Oct-20 08:58 33.428111 -112.026882 349 1140ft 8kts
12-Oct-20 08:59 33.428514 -112.007621 89 1674ft 114kts
12-Oct-20 09:00 33.423346 -111.959292 132 2199ft 165kts
12-Oct-20 09:01 33.378209 -111.951096 193 2774ft 174kts
12-Oct-20 09:02 33.340199 -111.988597 246 2913ft 189kts
12-Oct-20 09:03 33.319097 -112.045706 248 3194ft 187kts
12-Oct-20 09:04 33.303948 -112.104353 261 3677ft 178kts
12-Oct-20 09:05 33.295450 -112.162424 267 4198ft 182kts
12-Oct-20 09:06 33.296011 -112.223634 276 4476ft 182kts
12-Oct-20 09:07 33.303049 -112.282910 281 4976ft 177kts
12-Oct-20 09:08 33.310594 -112.340968 279 5487ft 179kts
12-Oct-20 09:09 33.318325 -112.401868 281 5476ft 188kts
12-Oct-20 09:10 33.329020 -112.462747 284 5590ft 183kts
12-Oct-20 09:11 33.340154 -112.519495 285 6284ft 170kts
12-Oct-20 09:12 33.352969 -112.575859 286 6553ft 180kts
12-Oct-20 09:13 33.367183 -112.632475 289 6930ft 176kts
12-Oct-20 09:14 33.387039 -112.684976 295 7509ft 170kts
12-Oct-20 09:15 33.408358 -112.735068 297 8147ft 170kts
12-Oct-20 09:16 33.430630 -112.785728 297 8541ft 177kts
12-Oct-20 09:17 33.454334 -112.839255 298 8509ft 184kts
12-Oct-20 09:18 33.484660 -112.888358 300 8511ft 184kts
12-Oct-20 09:19 33.510363 -112.941294 300 8505ft 184kts
12-Oct-20 09:20 33.536292 -112.994125 300 8499ft 184kts
12-Oct-20 09:21 33.562293 -113.047199 300 8495ft 184kts
12-Oct-20 09:22 33.588152 -113.100129 300 8490ft 184kts
12-Oct-20 09:23 33.613983 -113.152996 300 8489ft 184kts
12-Oct-20 09:24 33.639839 -113.206048 300 8482ft 184kts
12-Oct-20 09:25 33.665656 -113.259075 300 8481ft 184kts
12-Oct-20 09:26 33.691400 -113.312011 300 8475ft 184kts
12-Oct-20 09:27 33.717205 -113.365161 300 8469ft 184kts
12-Oct-20 09:28 33.742971 -113.418349 300 8468ft 184kts
12-Oct-20 09:29 33.768744 -113.471577 300 8462ft 184kts
12-Oct-20 09:30 33.794384 -113.524647 300 8457ft 184kts
12-Oct-20 09:31 33.820129 -113.577968 300 8454ft 184kts
12-Oct-20 09:32 33.845789 -113.631255 300 8439ft 184kts
12-Oct-20 09:33 33.871471 -113.684616 300 8364ft 188kts
12-Oct-20 09:34 33.898413 -113.740518 300 7791ft 196kts
12-Oct-20 09:35 33.925771 -113.797531 300 7178ft 197kts
12-Oct-20 09:36 33.953192 -113.854798 300 6535ft 198kts
12-Oct-20 09:37 33.979844 -113.910593 300 5838ft 186kts
12-Oct-20 09:38 34.005521 -113.964373 301 5137ft 185kts
12-Oct-20 09:39 34.031604 -114.018110 301 4470ft 177kts
12-Oct-20 09:40 34.053273 -114.064063 301 4328ft 154kts
12-Oct-20 09:41 34.070846 -114.111501 295 3892ft 151kts
12-Oct-20 09:42 34.086313 -114.155887 295 3476ft 138kts
12-Oct-20 09:43 34.098366 -114.199050 289 2838ft 135kts
12-Oct-20 09:44 34.109470 -114.239564 290 2076ft 116kts
12-Oct-20 09:45 34.120458 -114.270317 312 1280ft 89kts
12-Oct-20 09:46 34.140996 -114.273178 22 501ft 72kts
12-Oct-20 09:47 34.148734 -114.268482 26 457ft 26kts
12-Oct-20 09:48 34.151874 -114.269419 296 455ft 16kts
12-Oct-20 09:49 34.153528 -114.272070 293 452ft 0kts
12-Oct-20 09:50 34.153528 -114.272070 293 452ft 0kts

Navigation Log

Ident Type
Flight plan parsing failed, navigation log unavailable